Time;durP1;ratioP1;P1;durP2;ratioP2;P2;SDS_P1;SDS_P2;PMS_P1;PMS_P2;Temp;Humidity;BMP_temperature;BMP_pressure;BME280_temperature;BME280_humidity;BME280_pressure;Samples;Min_cycle;Max_cycle;Signal;HPM_P1;HPM_P2
2022/11/20 00:01:26;;;;;;;0.57;0.57;;;;;;;7.08;88.37;94857.97;4387015;32;20276;-58
2022/11/20 00:03:55;;;;;;;0.73;0.73;;;;;;;7.09;88.54;94852.41;4359728;32;20290;-57
2022/11/20 00:06:22;;;;;;;0.30;0.30;;;;;;;7.21;88.35;94852.03;4365587;32;20284;-58
2022/11/20 00:08:48;;;;;;;1.30;0.73;;;;;;;6.98;88.55;94850.19;4376711;32;20300;-58
2022/11/20 00:11:19;;;;;;;0.40;0.40;;;;;;;7.19;88.84;94854.94;4357786;32;20326;-58
2022/11/20 00:13:45;;;;;;;0.93;0.77;;;;;;;7.06;88.59;94853.00;4376421;32;20279;-58
2022/11/20 00:16:19;;;;;;;0.37;0.37;;;;;;;6.99;89.25;94855.19;4378434;32;20305;-57
2022/11/20 00:18:44;;;;;;;1.27;0.80;;;;;;;6.97;88.85;94859.97;4383299;32;20280;-58
2022/11/20 00:21:19;;;;;;;0.53;0.40;;;;;;;7.14;88.67;94860.28;4367058;32;20310;-58
2022/11/20 00:23:45;;;;;;;0.30;0.30;;;;;;;7.01;88.96;94868.09;4389997;32;20200;-58
2022/11/20 00:26:13;;;;;;;0.43;0.40;;;;;;;6.96;89.29;94857.59;4369343;32;20418;-58
2022/11/20 00:28:39;;;;;;;0.60;0.60;;;;;;;7.12;88.68;94858.97;4385733;32;20315;-58
2022/11/20 00:31:13;;;;;;;0.77;0.77;;;;;;;7.15;88.31;94864.47;4388834;32;20323;-58
2022/11/20 00:33:43;;;;;;;0.33;0.33;;;;;;;7.04;88.41;94870.19;4378400;32;20199;-58
2022/11/20 00:36:30;;;;;;;0.57;0.50;;;;;;;7.03;89.27;94863.31;4351007;32;20272;-58
2022/11/20 00:38:58;;;;;;;0.60;0.60;;;;;;;7.22;88.67;94872.06;4365298;32;20364;-58
2022/11/20 00:41:25;;;;;;;0.10;0.10;;;;;;;7.13;89.29;94865.81;4346325;32;20282;-58
2022/11/20 00:43:53;;;;;;;0.47;0.47;;;;;;;7.07;89.93;94870.38;4368209;32;20325;-58
2022/11/20 00:46:22;;;;;;;0.50;0.50;;;;;;;6.95;90.94;94874.47;4381465;32;20299;-57
2022/11/20 00:48:52;;;;;;;0.63;0.63;;;;;;;6.98;90.64;94871.28;4335224;32;20293;-58
2022/11/20 00:51:20;;;;;;;0.37;0.37;;;;;;;6.82;90.99;94875.97;4361332;32;20312;-58
2022/11/20 00:53:47;;;;;;;0.00;0.00;;;;;;;6.90;90.88;94881.38;4360094;32;20281;-58
2022/11/20 00:56:15;;;;;;;1.17;1.03;;;;;;;6.99;90.78;94878.13;4352799;32;20304;-58
2022/11/20 00:58:44;;;;;;;0.87;0.87;;;;;;;6.86;90.79;94885.63;4371635;32;20368;-58
2022/11/20 01:01:15;;;;;;;0.33;0.33;;;;;;;6.81;90.98;94882.28;4301613;32;20439;-58
2022/11/20 01:03:44;;;;;;;0.27;0.27;;;;;;;6.86;90.22;94888.28;4353115;32;20451;-58
2022/11/20 01:06:16;;;;;;;0.27;0.27;;;;;;;6.92;89.73;94882.94;4366469;32;20373;-58
2022/11/20 01:08:44;;;;;;;0.93;0.33;;;;;;;6.98;90.14;94889.75;4364629;32;20318;-58
2022/11/20 01:11:32;;;;;;;0.33;0.33;;;;;;;6.93;90.12;94890.59;4375909;32;20347;-58
2022/11/20 01:13:59;;;;;;;0.53;0.53;;;;;;;6.93;90.13;94887.94;4367260;32;20338;-58
2022/11/20 01:16:28;;;;;;;0.50;0.50;;;;;;;6.97;90.17;94886.31;4369843;32;20268;-59
2022/11/20 01:18:56;;;;;;;0.40;0.37;;;;;;;6.99;89.28;94893.97;4376513;32;20317;-58
2022/11/20 01:21:30;;;;;;;0.20;0.20;;;;;;;6.76;90.01;94896.31;4352998;32;20275;-63
2022/11/20 01:23:58;;;;;;;0.37;0.37;;;;;;;6.92;89.55;94898.78;4385946;32;20264;-57
2022/11/20 01:26:26;;;;;;;0.50;0.50;;;;;;;6.93;89.71;94900.34;4362688;32;20347;-57
2022/11/20 01:28:56;;;;;;;0.20;0.20;;;;;;;6.82;89.56;94897.03;4361677;32;20279;-58
2022/11/20 01:31:36;;;;;;;0.67;0.67;;;;;;;6.84;90.04;94908.87;4370658;32;20296;-58
2022/11/20 01:34:08;;;;;;;2.27;0.83;;;;;;;6.89;89.23;94905.38;4370277;32;20296;-58
2022/11/20 01:36:36;;;;;;;0.33;0.33;;;;;;;6.98;89.14;94895.81;4374998;32;20291;-58
2022/11/20 01:39:09;;;;;;;0.33;0.33;;;;;;;6.94;89.02;94909.81;4355884;32;20285;-58
2022/11/20 01:44:22;;;;;;;0.17;0.17;;;;;;;7.11;88.76;94897.75;4329770;32;20352;-57
2022/11/20 01:47:07;;;;;;;0.20;0.20;;;;;;;7.13;88.50;94906.19;4355416;32;20319;-58
2022/11/20 01:50:10;;;;;;;0.30;0.30;;;;;;;7.20;87.86;94905.84;4331348;32;20280;-57
2022/11/20 01:53:00;;;;;;;0.43;0.43;;;;;;;7.09;88.22;94905.16;4328085;32;20315;-58
2022/11/20 01:55:38;;;;;;;0.20;0.20;;;;;;;7.13;89.00;94902.75;4351028;32;20324;-57
2022/11/20 01:58:07;;;;;;;0.23;0.23;;;;;;;7.00;88.63;94903.44;4354444;32;20280;-58
2022/11/20 02:00:32;;;;;;;0.33;0.33;;;;;;;7.03;89.23;94905.53;4367012;32;20336;-58
2022/11/20 02:03:03;;;;;;;0.20;0.20;;;;;;;6.96;88.71;94899.78;4360279;32;20298;-57
2022/11/20 02:06:05;;;;;;;0.40;0.40;;;;;;;7.11;88.49;94907.53;4333395;32;20189;-58
2022/11/20 02:08:32;;;;;;;0.50;0.50;;;;;;;7.12;88.68;94898.53;4344544;32;20276;-57
2022/11/20 02:10:59;;;;;;;0.30;0.30;;;;;;;7.06;88.55;94905.75;4310763;32;20293;-57
2022/11/20 02:13:44;;;;;;;0.23;0.23;;;;;;;7.08;87.96;94895.69;4337871;32;20297;-57
2022/11/20 02:16:18;;;;;;;0.40;0.40;;;;;;;7.14;88.18;94891.94;4342702;32;20432;-58
2022/11/20 02:18:44;;;;;;;3.77;0.50;;;;;;;6.97;88.62;94901.34;4359529;32;20299;-57
2022/11/20 02:21:34;;;;;;;0.43;0.43;;;;;;;6.96;89.11;94905.06;4353409;32;20349;-57
2022/11/20 02:24:15;;;;;;;0.30;0.30;;;;;;;6.88;89.11;94909.87;4353057;32;20280;-58
2022/11/20 02:26:58;;;;;;;0.40;0.40;;;;;;;6.96;88.79;94899.78;4335707;32;20285;-57
2022/11/20 02:29:28;;;;;;;0.23;0.23;;;;;;;6.96;88.75;94900.56;4356810;32;20277;-57
2022/11/20 02:31:56;;;;;;;0.27;0.27;;;;;;;6.94;88.61;94907.97;4358169;32;20287;-58
2022/11/20 02:34:22;;;;;;;1.30;0.80;;;;;;;6.93;88.53;94908.25;4340853;32;20296;-57
2022/11/20 02:36:51;;;;;;;1.27;0.77;;;;;;;7.10;87.77;94900.69;4353049;32;20380;-58
2022/11/20 02:39:18;;;;;;;0.40;0.40;;;;;;;7.05;88.29;94908.66;4368746;32;20284;-57
2022/11/20 02:41:44;;;;;;;0.30;0.30;;;;;;;7.04;87.77;94901.81;4337055;32;20345;-58
2022/11/20 02:44:11;;;;;;;0.30;0.30;;;;;;;6.82;88.39;94905.75;4347686;32;20367;-57
2022/11/20 02:46:38;;;;;;;0.10;0.10;;;;;;;6.71;89.33;94908.75;4385990;32;20255;-58
2022/11/20 02:49:05;;;;;;;0.47;0.47;;;;;;;6.76;89.04;94906.84;4389111;32;20321;-58
2022/11/20 02:51:32;;;;;;;0.10;0.10;;;;;;;6.86;88.50;94906.72;4360989;32;20293;-58
2022/11/20 02:53:58;;;;;;;0.20;0.20;;;;;;;6.84;88.80;94908.87;4358575;32;20343;-58
2022/11/20 02:56:24;;;;;;;0.37;0.37;;;;;;;6.97;88.20;94898.72;4356514;32;20386;-58
2022/11/20 02:58:49;;;;;;;0.70;0.70;;;;;;;7.00;87.36;94912.13;4368090;32;20280;-63
2022/11/20 03:01:16;;;;;;;0.20;0.20;;;;;;;6.89;88.23;94906.16;4379162;32;20183;-57
2022/11/20 03:03:41;;;;;;;0.20;0.20;;;;;;;6.85;88.34;94910.47;4362731;32;20398;-57
2022/11/20 03:06:08;;;;;;;0.50;0.50;;;;;;;6.63;89.03;94907.50;4367273;32;20236;-58
2022/11/20 03:08:34;;;;;;;0.73;0.73;;;;;;;6.80;88.26;94899.16;4345227;32;20192;-58
2022/11/20 03:11:05;;;;;;;1.17;0.97;;;;;;;6.76;88.68;94906.84;4342423;32;20285;-57
2022/11/20 03:13:30;;;;;;;0.23;0.23;;;;;;;6.77;89.17;94899.72;4363078;32;20276;-57
2022/11/20 03:15:57;;;;;;;0.23;0.23;;;;;;;6.79;88.05;94906.28;4363738;32;20291;-57
2022/11/20 03:18:27;;;;;;;0.30;0.30;;;;;;;6.92;87.71;94890.88;4361503;32;20211;-58
2022/11/20 03:20:57;;;;;;;0.20;0.20;;;;;;;6.90;87.10;94901.69;4310324;32;20269;-57
2022/11/20 03:23:22;;;;;;;0.47;0.47;;;;;;;6.99;87.22;94900.03;4348168;32;20288;-57
2022/11/20 03:25:48;;;;;;;0.20;0.20;;;;;;;6.98;86.80;94893.16;4373107;32;20336;-58
2022/11/20 03:28:13;;;;;;;0.10;0.10;;;;;;;7.03;86.68;94892.34;4370187;32;20200;-58
2022/11/20 03:30:39;;;;;;;0.77;0.77;;;;;;;6.78;87.35;94902.09;4366505;32;20213;-57
2022/11/20 03:33:06;;;;;;;0.33;0.33;;;;;;;6.95;87.50;94900.84;4371944;32;20208;-57
2022/11/20 03:35:35;;;;;;;0.20;0.20;;;;;;;7.03;86.46;94900.25;4374073;32;20352;-57
2022/11/20 03:38:00;;;;;;;0.10;0.10;;;;;;;6.89;86.14;94905.38;4387926;32;20341;-55
2022/11/20 03:40:25;;;;;;;0.43;0.43;;;;;;;6.93;86.56;94890.59;4343235;32;20285;-57
2022/11/20 03:42:50;;;;;;;0.57;0.57;;;;;;;6.88;86.76;94899.31;4365965;32;20208;-57
2022/11/20 03:45:18;;;;;;;0.97;0.87;;;;;;;6.99;86.09;94893.97;4377770;32;20200;-56
2022/11/20 03:47:44;;;;;;;0.60;0.60;;;;;;;7.00;86.01;94890.25;4365756;32;20189;-57
2022/11/20 03:50:12;;;;;;;0.40;0.40;;;;;;;7.05;85.41;94882.28;4358079;32;20359;-57
2022/11/20 03:52:38;;;;;;;1.50;0.77;;;;;;;6.85;85.94;94897.28;4373701;32;20328;-57
2022/11/20 03:55:06;;;;;;;0.50;0.50;;;;;;;6.92;85.97;94902.19;4366092;32;20288;-57
2022/11/20 03:57:31;;;;;;;0.30;0.30;;;;;;;7.01;85.60;94889.97;4370015;32;20344;-57
2022/11/20 03:59:58;;;;;;;0.30;0.30;;;;;;;6.84;86.22;94892.28;4339902;32;20339;-57
2022/11/20 04:02:24;;;;;;;0.33;0.33;;;;;;;6.85;86.54;94899.12;4362669;32;20184;-58
2022/11/20 04:04:49;;;;;;;0.40;0.40;;;;;;;7.00;85.69;94896.31;4366784;32;20294;-58
2022/11/20 04:07:15;;;;;;;0.30;0.30;;;;;;;6.91;85.61;94905.91;4357707;32;20227;-57
2022/11/20 04:09:40;;;;;;;1.03;0.23;;;;;;;6.84;86.11;94908.09;4357532;32;20354;-58
2022/11/20 04:12:05;;;;;;;0.70;0.10;;;;;;;6.95;85.72;94908.75;4374112;32;20239;-57
2022/11/20 04:14:33;;;;;;;0.10;0.10;;;;;;;6.89;85.13;94916.72;4375874;32;20197;-58
2022/11/20 04:17:00;;;;;;;0.83;0.83;;;;;;;6.63;86.26;94912.78;4360123;32;20197;-57
2022/11/20 04:19:26;;;;;;;0.30;0.30;;;;;;;6.72;85.77;94911.09;4364884;32;20273;-57
2022/11/20 04:21:53;;;;;;;0.20;0.20;;;;;;;6.75;85.91;94904.50;4322988;32;20304;-57
2022/11/20 04:24:22;;;;;;;0.40;0.40;;;;;;;6.67;86.23;94913.00;4367117;32;20184;-57
2022/11/20 04:26:47;;;;;;;1.80;0.67;;;;;;;6.82;85.37;94910.22;4364879;32;20281;-58
2022/11/20 04:29:12;;;;;;;0.27;0.27;;;;;;;6.73;85.48;94910.03;4365125;32;20303;-58
2022/11/20 04:31:39;;;;;;;0.40;0.40;;;;;;;6.70;85.92;94905.31;4351959;32;20197;-58
2022/11/20 04:34:07;;;;;;;0.30;0.30;;;;;;;6.90;84.90;94902.47;4349823;32;20216;-57
2022/11/20 04:36:33;;;;;;;4.13;0.67;;;;;;;6.85;84.80;94905.19;4363163;32;20284;-58
2022/11/20 04:39:05;;;;;;;0.00;0.00;;;;;;;6.84;85.03;94898.34;4375024;32;20288;-58
2022/11/20 04:41:33;;;;;;;0.30;0.30;;;;;;;6.86;85.16;94901.44;4374189;32;20176;-58
2022/11/20 04:44:05;;;;;;;0.20;0.20;;;;;;;6.90;84.58;94904.31;4373814;32;20311;-57
2022/11/20 04:46:33;;;;;;;1.03;0.40;;;;;;;6.79;85.07;94906.28;4363672;32;20292;-58
2022/11/20 04:48:59;;;;;;;0.30;0.30;;;;;;;6.76;84.96;94906.84;4349988;32;20273;-57
2022/11/20 04:51:24;;;;;;;0.30;0.30;;;;;;;6.86;85.28;94903.31;4356319;32;20334;-58
2022/11/20 04:53:56;;;;;;;0.13;0.13;;;;;;;6.88;85.10;94909.87;4376741;32;20219;-59
2022/11/20 04:56:22;;;;;;;0.57;0.57;;;;;;;6.95;84.68;94912.19;4374511;32;20180;-58
2022/11/20 04:58:51;;;;;;;0.50;0.50;;;;;;;6.81;85.10;94913.91;4382867;32;20325;-58
2022/11/20 05:01:22;;;;;;;0.67;0.67;;;;;;;6.92;84.90;94910.09;4346972;32;20226;-57
2022/11/20 05:03:49;;;;;;;0.77;0.57;;;;;;;6.89;84.80;94913.28;4369230;32;20285;-58
2022/11/20 05:06:17;;;;;;;0.40;0.40;;;;;;;6.88;84.72;94909.09;4383874;32;20282;-58
2022/11/20 05:08:46;;;;;;;0.30;0.30;;;;;;;7.00;84.82;94908.72;4373198;32;20285;-57
2022/11/20 05:11:15;;;;;;;0.13;0.13;;;;;;;6.92;84.64;94909.31;4357254;32;20450;-58
2022/11/20 05:13:41;;;;;;;1.00;1.00;;;;;;;6.83;85.44;94912.59;4383956;32;20367;-58
2022/11/20 05:16:12;;;;;;;0.50;0.50;;;;;;;6.86;84.83;94906.72;4372167;32;20340;-58
2022/11/20 05:18:40;;;;;;;0.70;0.70;;;;;;;6.80;85.82;94905.22;4357670;32;20247;-58
2022/11/20 05:21:07;;;;;;;0.40;0.40;;;;;;;6.76;85.97;94901.56;4358895;32;20324;-57
2022/11/20 05:23:33;;;;;;;0.80;0.80;;;;;;;6.83;85.08;94902.03;4379163;32;20307;-57
2022/11/20 05:26:01;;;;;;;0.77;0.77;;;;;;;6.72;85.62;94911.09;4346239;32;20284;-58
2022/11/20 05:28:29;;;;;;;0.63;0.63;;;;;;;6.60;86.20;94907.28;4347310;32;20200;-57
2022/11/20 05:30:54;;;;;;;1.17;1.03;;;;;;;6.66;86.04;94909.56;4339487;32;20352;-57
2022/11/20 05:33:20;;;;;;;0.60;0.60;;;;;;;6.65;85.79;94908.00;4371925;32;20300;-59
2022/11/20 05:35:45;;;;;;;0.30;0.30;;;;;;;6.55;86.38;94910.75;4375836;32;20208;-57
2022/11/20 05:38:13;;;;;;;0.63;0.63;;;;;;;6.77;85.25;94908.41;4379849;32;20189;-57
2022/11/20 05:40:40;;;;;;;0.20;0.20;;;;;;;6.71;85.78;94914.78;4371452;32;20173;-58
2022/11/20 05:43:06;;;;;;;0.47;0.47;;;;;;;6.64;86.04;94914.34;4352372;32;20377;-57
2022/11/20 05:45:31;;;;;;;0.77;0.77;;;;;;;6.59;85.92;94909.13;4332184;32;20282;-57
2022/11/20 05:48:00;;;;;;;0.20;0.20;;;;;;;6.55;85.92;94916.00;4364142;32;20241;-58
2022/11/20 05:50:29;;;;;;;0.50;0.50;;;;;;;6.60;85.92;94921.25;4368013;32;20196;-58
2022/11/20 05:52:54;;;;;;;0.93;0.93;;;;;;;6.57;85.76;94907.84;4372124;32;20323;-57
2022/11/20 05:55:21;;;;;;;0.10;0.10;;;;;;;6.86;84.85;94911.22;4372746;32;20356;-57
2022/11/20 05:57:47;;;;;;;0.40;0.40;;;;;;;6.90;84.13;94920.94;4360291;32;20201;-57
2022/11/20 06:00:13;;;;;;;0.40;0.40;;;;;;;6.70;85.04;94918.50;4370821;32;20288;-57
2022/11/20 06:02:39;;;;;;;0.53;0.47;;;;;;;6.66;85.16;94922.75;4336353;32;20289;-57
2022/11/20 06:05:05;;;;;;;0.60;0.60;;;;;;;6.65;85.08;94915.91;4368598;32;20360;-57
2022/11/20 06:07:31;;;;;;;2.20;1.00;;;;;;;6.74;85.50;94924.00;4341801;32;20226;-57
2022/11/20 06:09:58;;;;;;;0.27;0.27;;;;;;;6.72;84.89;94918.22;4351399;32;20281;-57
2022/11/20 06:12:24;;;;;;;0.33;0.33;;;;;;;6.69;84.32;94919.56;4323356;32;20199;-60
2022/11/20 06:14:51;;;;;;;0.10;0.10;;;;;;;6.75;84.44;94915.81;4369637;32;20360;-57
2022/11/20 06:17:16;;;;;;;0.30;0.30;;;;;;;6.74;84.56;94910.81;4370406;32;20281;-57
2022/11/20 06:19:41;;;;;;;0.37;0.37;;;;;;;6.65;84.15;94921.16;4349319;32;20425;-57
2022/11/20 06:22:08;;;;;;;0.17;0.17;;;;;;;6.68;84.73;94909.28;4377483;32;20471;-57
2022/11/20 06:24:33;;;;;;;1.13;0.20;;;;;;;6.85;83.75;94917.59;4347826;32;20200;-57
2022/11/20 06:27:00;;;;;;;0.20;0.20;;;;;;;6.79;83.22;94916.84;4371559;32;20328;-58
2022/11/20 06:29:26;;;;;;;0.70;0.70;;;;;;;6.65;83.37;94915.16;4346341;32;20211;-58
2022/11/20 06:31:53;;;;;;;0.20;0.20;;;;;;;6.80;82.78;94917.63;4338797;32;20281;-57
2022/11/20 06:34:23;;;;;;;1.00;0.60;;;;;;;6.80;82.22;94915.78;4355635;32;20323;-58
2022/11/20 06:36:50;;;;;;;0.37;0.37;;;;;;;6.85;82.06;94912.31;4361964;32;20277;-57
2022/11/20 06:39:24;;;;;;;0.10;0.10;;;;;;;6.64;83.25;94924.91;4301462;32;20311;-58
2022/11/20 06:41:52;;;;;;;0.57;0.57;;;;;;;6.67;82.08;94921.69;4363472;32;20289;-58
2022/11/20 06:44:19;;;;;;;0.30;0.30;;;;;;;6.75;81.38;94925.56;4360813;32;20277;-58
2022/11/20 06:46:46;;;;;;;0.60;0.60;;;;;;;6.63;81.24;94931.22;4389887;32;20300;-58
2022/11/20 06:49:13;;;;;;;0.17;0.17;;;;;;;6.67;81.36;94928.81;4364455;32;20277;-57
2022/11/20 06:51:38;;;;;;;0.30;0.30;;;;;;;6.51;81.20;94936.06;4361570;32;20325;-57
2022/11/20 06:54:04;;;;;;;0.33;0.33;;;;;;;6.66;81.19;94933.28;4368493;32;20299;-58
2022/11/20 06:56:31;;;;;;;0.50;0.50;;;;;;;6.62;81.26;94940.19;4355651;32;20188;-58
2022/11/20 06:58:57;;;;;;;0.27;0.27;;;;;;;6.77;80.39;94945.31;4351958;32;20193;-58
2022/11/20 07:01:23;;;;;;;0.00;0.00;;;;;;;6.73;80.01;94949.56;4367939;32;20321;-62
2022/11/20 07:03:51;;;;;;;0.13;0.13;;;;;;;6.83;79.70;94949.50;4380381;32;20321;-57
2022/11/20 07:06:18;;;;;;;0.23;0.23;;;;;;;6.71;79.86;94954.34;4361732;32;20201;-58
2022/11/20 07:08:44;;;;;;;0.57;0.47;;;;;;;6.67;79.88;94953.31;4358722;32;20304;-58
2022/11/20 07:11:14;;;;;;;0.00;0.00;;;;;;;6.78;80.23;94949.53;4357100;32;20377;-57
2022/11/20 07:13:41;;;;;;;0.33;0.30;;;;;;;6.84;80.19;94947.63;4348680;32;20323;-57
2022/11/20 07:16:08;;;;;;;0.33;0.33;;;;;;;6.97;78.89;94948.81;4372935;32;20290;-57
2022/11/20 07:18:34;;;;;;;0.00;0.00;;;;;;;6.90;79.58;94962.31;4350703;32;20285;-57
2022/11/20 07:21:04;;;;;;;0.30;0.30;;;;;;;6.89;79.86;94952.84;4334159;32;20311;-57
2022/11/20 07:23:33;;;;;;;0.40;0.40;;;;;;;6.82;80.67;94957.69;4371562;32;20284;-57
2022/11/20 07:26:07;;;;;;;1.10;0.60;;;;;;;6.74;81.58;94958.25;4378795;32;20320;-57
2022/11/20 07:28:34;;;;;;;1.60;0.80;;;;;;;6.79;81.48;94968.78;4366509;32;20345;-57
2022/11/20 07:31:08;;;;;;;0.47;0.47;;;;;;;6.69;81.56;94961.72;4351445;32;20276;-57
2022/11/20 07:33:34;;;;;;;0.30;0.30;;;;;;;6.93;81.96;94967.03;4357281;32;20300;-57
2022/11/20 07:36:01;;;;;;;0.33;0.33;;;;;;;6.82;82.39;94965.59;4351008;32;20324;-58
2022/11/20 07:38:27;;;;;;;0.40;0.40;;;;;;;6.77;82.25;94965.63;4356242;32;20336;-58
2022/11/20 07:41:01;;;;;;;0.40;0.40;;;;;;;6.76;82.53;94964.84;4347511;32;20369;-57
2022/11/20 07:43:27;;;;;;;0.20;0.20;;;;;;;6.67;83.09;94958.56;4366570;32;20187;-57
2022/11/20 07:45:57;;;;;;;0.20;0.20;;;;;;;6.62;82.99;94958.66;4388262;32;20292;-58
2022/11/20 07:48:23;;;;;;;0.17;0.17;;;;;;;6.62;82.92;94960.50;4371632;32;20188;-57
2022/11/20 07:50:52;;;;;;;0.50;0.50;;;;;;;6.74;82.89;94963.53;4370984;32;20276;-58
2022/11/20 07:53:20;;;;;;;0.50;0.50;;;;;;;6.55;82.74;94963.44;4372944;32;20281;-57
2022/11/20 07:55:47;;;;;;;0.13;0.13;;;;;;;6.91;81.75;94966.53;4375694;32;20296;-57
2022/11/20 07:58:13;;;;;;;0.50;0.50;;;;;;;6.78;81.17;94954.03;4384442;32;20331;-57
2022/11/20 08:00:40;;;;;;;0.20;0.20;;;;;;;6.81;81.34;94964.00;4371832;32;20299;-58
2022/11/20 08:03:06;;;;;;;0.10;0.10;;;;;;;6.89;80.94;94964.19;4369231;32;20337;-57
2022/11/20 08:05:33;;;;;;;0.40;0.40;;;;;;;6.89;80.49;94964.19;4367029;32;20293;-57
2022/11/20 08:07:59;;;;;;;0.43;0.43;;;;;;;6.78;80.67;94973.25;4372762;32;20265;-58
2022/11/20 08:10:24;;;;;;;0.47;0.47;;;;;;;6.64;81.29;94961.78;4374202;32;20299;-57
2022/11/20 08:15:37;;;;;;;0.73;0.30;;;;;;;6.68;81.09;94968.06;4390203;32;20207;-57
2022/11/20 08:18:13;;;;;;;1.17;0.40;;;;;;;6.85;80.65;94965.03;4376582;32;20300;-57
2022/11/20 08:20:39;;;;;;;0.00;0.00;;;;;;;6.85;80.15;94967.66;4361924;32;20284;-57
2022/11/20 08:23:07;;;;;;;0.33;0.33;;;;;;;6.80;81.73;94970.34;4369943;32;20312;-58
2022/11/20 08:25:36;;;;;;;0.20;0.20;;;;;;;6.92;80.42;94972.59;4370522;32;20200;-55
2022/11/20 08:28:07;;;;;;;0.20;0.20;;;;;;;6.86;80.35;94967.38;4363714;32;20277;-58
2022/11/20 08:30:33;;;;;;;0.40;0.40;;;;;;;6.97;80.23;94972.56;4360882;32;20325;-57
2022/11/20 08:33:10;;;;;;;0.10;0.10;;;;;;;6.87;80.08;94982.12;4364430;32;20335;-58
2022/11/20 08:35:37;;;;;;;0.43;0.43;;;;;;;6.86;80.38;94980.53;4377832;32;20196;-57
2022/11/20 08:38:04;;;;;;;0.20;0.20;;;;;;;6.89;79.76;94980.00;4369931;32;20275;-58
2022/11/20 08:40:30;;;;;;;0.20;0.20;;;;;;;6.86;79.96;94977.91;4358600;32;20315;-58
2022/11/20 08:42:55;;;;;;;0.30;0.30;;;;;;;6.99;79.77;94980.97;4373547;32;20352;-57
2022/11/20 08:45:22;;;;;;;0.17;0.17;;;;;;;7.01;79.67;94976.22;4361810;32;20223;-58
2022/11/20 08:47:48;;;;;;;0.20;0.20;;;;;;;6.98;79.25;94971.50;4386058;32;20291;-57
2022/11/20 08:50:15;;;;;;;0.10;0.10;;;;;;;7.06;79.18;94973.53;4388241;32;20276;-58
2022/11/20 08:52:43;;;;;;;0.40;0.40;;;;;;;7.13;78.29;94973.97;4364804;32;20351;-57
2022/11/20 08:55:09;;;;;;;0.40;0.40;;;;;;;7.16;78.09;94971.56;4377993;32;20334;-58
2022/11/20 08:57:37;;;;;;;0.17;0.17;;;;;;;7.26;78.03;94972.53;4353031;32;20294;-57
2022/11/20 09:00:05;;;;;;;0.53;0.47;;;;;;;7.21;78.02;94970.72;4367975;32;20272;-57
2022/11/20 09:02:30;;;;;;;0.60;0.60;;;;;;;7.31;78.30;94980.38;4374799;32;20276;-57
2022/11/20 09:05:01;;;;;;;0.30;0.30;;;;;;;7.45;77.07;94976.78;4368192;32;20326;-57
2022/11/20 09:07:28;;;;;;;0.07;0.07;;;;;;;7.38;77.12;94978.19;4370961;32;20276;-58
2022/11/20 09:09:55;;;;;;;0.10;0.10;;;;;;;7.29;77.48;94978.00;4343880;32;20340;-58
2022/11/20 09:12:20;;;;;;;0.43;0.43;;;;;;;7.44;77.31;94972.59;4371700;32;20360;-58
2022/11/20 09:14:45;;;;;;;0.20;0.20;;;;;;;7.53;76.11;94968.22;4368788;32;20277;-57
2022/11/20 09:17:13;;;;;;;0.40;0.40;;;;;;;7.57;75.94;94966.59;4376948;32;20211;-58
2022/11/20 09:19:39;;;;;;;0.30;0.30;;;;;;;7.58;75.51;94967.41;4369032;32;20239;-57
2022/11/20 09:22:06;;;;;;;0.17;0.17;;;;;;;7.59;74.74;94974.25;4338200;32;20305;-58
2022/11/20 09:24:33;;;;;;;0.10;0.10;;;;;;;7.65;74.53;94981.03;4352126;32;20295;-58
2022/11/20 09:27:03;;;;;;;0.33;0.33;;;;;;;7.52;75.37;94965.88;4371647;32;20315;-58
2022/11/20 09:29:31;;;;;;;0.40;0.30;;;;;;;7.50;75.36;94963.53;4356419;32;20347;-58
2022/11/20 09:31:58;;;;;;;0.17;0.17;;;;;;;7.49;76.10;94966.44;4365827;32;20288;-57
2022/11/20 09:34:23;;;;;;;0.20;0.20;;;;;;;7.58;75.37;94965.53;4340518;32;20288;-57
2022/11/20 09:36:49;;;;;;;0.30;0.30;;;;;;;7.56;75.63;94967.69;4367704;32;20280;-57
2022/11/20 09:39:17;;;;;;;0.20;0.20;;;;;;;7.49;74.72;94954.03;4314242;32;20327;-58
2022/11/20 09:42:09;;;;;;;0.27;0.27;;;;;;;7.43;74.88;94962.31;4321024;32;20281;-57
2022/11/20 09:44:46;;;;;;;0.00;0.00;;;;;;;7.50;74.52;94963.53;4362129;32;20400;-57
2022/11/20 09:47:25;;;;;;;1.37;0.60;;;;;;;7.67;73.65;94951.72;4343367;32;20285;-57
2022/11/20 09:50:27;;;;;;;0.30;0.30;;;;;;;7.71;73.14;94952.69;4356529;32;20304;-62
2022/11/20 09:53:35;;;;;;;0.00;0.00;;;;;;;7.76;73.28;94950.00;4362835;32;20295;-58
2022/11/20 09:56:02;;;;;;;2.10;0.73;;;;;;;7.70;72.81;94951.12;4368966;32;20378;-58
2022/11/20 09:58:36;;;;;;;0.43;0.43;;;;;;;7.81;73.25;94952.59;4305257;32;20316;-58
2022/11/20 10:01:40;;;;;;;0.20;0.20;;;;;;;7.80;72.86;94951.81;4354063;32;20326;-58
2022/11/20 10:04:21;;;;;;;0.10;0.10;;;;;;;7.81;72.17;94940.16;4368017;32;20295;-58
2022/11/20 10:07:24;;;;;;;0.20;0.20;;;;;;;7.87;72.15;94936.41;4367991;32;20290;-57
2022/11/20 10:09:55;;;;;;;0.43;0.43;;;;;;;8.07;72.87;94932.69;4352777;32;20284;-60
2022/11/20 10:12:49;;;;;;;0.43;0.43;;;;;;;8.18;72.10;94928.81;4316012;32;20336;-58
2022/11/20 10:15:48;;;;;;;0.07;0.07;;;;;;;8.21;71.36;94930.88;4363874;32;20284;-58
2022/11/20 10:18:47;;;;;;;0.30;0.30;;;;;;;8.36;70.53;94942.31;4371007;32;20297;-58
2022/11/20 10:21:24;;;;;;;0.57;0.57;;;;;;;8.39;72.36;94939.09;4340501;32;20363;-57
2022/11/20 10:24:47;;;;;;;0.33;0.33;;;;;;;8.32;70.19;94936.81;4318874;32;20320;-57
2022/11/20 10:27:21;;;;;;;0.10;0.10;;;;;;;8.25;70.33;94923.94;4353456;32;20275;-57
2022/11/20 10:30:19;;;;;;;0.00;0.00;;;;;;;8.38;70.25;94934.88;4362378;32;20275;-58
2022/11/20 10:33:31;;;;;;;0.20;0.20;;;;;;;8.29;71.39;94934.72;4344478;32;20299;-57
2022/11/20 10:36:18;;;;;;;0.03;0.03;;;;;;;8.28;70.84;94936.59;4370644;32;20276;-57
2022/11/20 10:38:53;;;;;;;0.47;0.47;;;;;;;8.42;70.48;94947.22;4374831;32;20359;-57
2022/11/20 10:41:39;;;;;;;0.40;0.20;;;;;;;8.40;70.85;94945.94;4367175;32;20295;-58
2022/11/20 10:44:12;;;;;;;0.07;0.07;;;;;;;8.35;69.76;94936.22;4376872;32;20279;-58
2022/11/20 10:46:45;;;;;;;0.20;0.20;;;;;;;8.32;70.04;94936.00;4367549;32;20273;-57
2022/11/20 10:49:19;;;;;;;0.10;0.10;;;;;;;8.32;69.80;94936.00;4368161;32;21554;-57
2022/11/20 10:52:20;;;;;;;0.00;0.00;;;;;;;8.45;70.35;94924.72;4366510;32;20363;-57
2022/11/20 10:55:08;;;;;;;0.20;0.20;;;;;;;8.48;69.90;94932.87;4354130;32;20328;-57
2022/11/20 10:58:12;;;;;;;0.20;0.20;;;;;;;8.46;68.90;94931.59;4360737;32;20273;-58
2022/11/20 11:00:39;;;;;;;0.20;0.20;;;;;;;8.55;69.33;94920.03;4362378;32;20303;-58
2022/11/20 11:03:28;;;;;;;0.20;0.20;;;;;;;8.64;69.40;94927.31;4368323;32;20284;-58
2022/11/20 11:06:08;;;;;;;0.33;0.33;;;;;;;8.45;68.62;94927.38;4368641;32;20275;-57
2022/11/20 11:08:38;;;;;;;0.17;0.17;;;;;;;8.48;69.68;94916.22;4371728;32;20277;-57
2022/11/20 11:11:22;;;;;;;0.10;0.10;;;;;;;8.47;69.16;94914.66;4323484;32;20281;-58
2022/11/20 11:13:47;;;;;;;0.10;0.10;;;;;;;8.51;69.41;94915.66;4355892;32;20307;-58
2022/11/20 11:16:25;;;;;;;0.23;0.23;;;;;;;8.34;70.75;94918.03;4369809;32;20284;-57
2022/11/20 11:18:50;;;;;;;0.20;0.20;;;;;;;8.38;70.74;94911.09;4365976;32;20226;-62
2022/11/20 11:21:26;;;;;;;0.73;0.30;;;;;;;8.32;70.92;94915.66;4340428;32;20274;-57
2022/11/20 11:24:05;;;;;;;0.13;0.13;;;;;;;8.48;71.74;94916.22;4322956;32;20296;-57
2022/11/20 11:26:31;;;;;;;0.20;0.20;;;;;;;8.36;70.39;94905.31;4351168;32;20272;-58
2022/11/20 11:29:04;;;;;;;0.40;0.40;;;;;;;8.41;71.49;94898.09;4351027;32;20358;-58
2022/11/20 11:31:34;;;;;;;0.17;0.17;;;;;;;8.43;71.82;94901.22;4379686;32;20364;-58
2022/11/20 11:34:17;;;;;;;0.10;0.10;;;;;;;8.50;70.40;94893.72;4379832;32;20332;-56
2022/11/20 11:36:56;;;;;;;0.00;0.00;;;;;;;8.57;71.07;94901.25;4366134;32;20360;-58
2022/11/20 11:39:28;;;;;;;0.00;0.00;;;;;;;8.76;69.99;94898.53;4284035;32;20301;-58
2022/11/20 11:41:55;;;;;;;0.30;0.30;;;;;;;8.78;70.75;94888.47;4323335;32;20291;-58
2022/11/20 11:47:26;;;;;;;0.70;0.33;;;;;;;8.53;71.26;94894.97;4355326;32;20203;-58
2022/11/20 11:50:14;;;;;;;0.20;0.20;;;;;;;8.65;70.39;94897.94;4329606;32;20420;-58
2022/11/20 11:53:08;;;;;;;0.20;0.20;;;;;;;8.73;70.54;94894.63;4369775;32;20327;-58
2022/11/20 11:56:07;;;;;;;0.23;0.23;;;;;;;8.73;70.22;94888.56;4362931;32;20273;-58
2022/11/20 11:58:59;;;;;;;0.20;0.20;;;;;;;8.73;70.07;94888.56;4365096;32;20280;-58
2022/11/20 12:01:38;;;;;;;0.10;0.10;;;;;;;8.78;70.19;94891.88;4341790;32;20326;-62
2022/11/20 12:04:41;;;;;;;0.30;0.30;;;;;;;8.77;70.46;94894.81;4331677;32;20284;-58
2022/11/20 12:07:28;;;;;;;0.20;0.10;;;;;;;8.68;70.35;94900.03;4356106;32;20277;-58
2022/11/20 12:09:56;;;;;;;0.47;0.47;;;;;;;8.74;70.30;94898.84;4373757;32;20272;-59